createdAt,value
2022-12-17T00:05:48.142Z,98.18
2022-12-17T00:15:45.191Z,98.01
2022-12-17T00:25:45.535Z,97.91
2022-12-17T00:35:45.559Z,97.91
2022-12-17T00:45:45.807Z,97.65
2022-12-17T00:55:46.049Z,97.44
2022-12-17T01:05:46.386Z,97.28
2022-12-17T01:15:46.414Z,97.17
2022-12-17T01:25:46.758Z,97.17
2022-12-17T01:35:46.804Z,97.38
2022-12-17T01:45:47.182Z,97.44
2022-12-17T01:55:47.250Z,97.44
2022-12-17T02:05:47.599Z,97.34
2022-12-17T02:15:47.648Z,97.23
2022-12-17T02:25:47.962Z,97.13
2022-12-17T02:35:47.989Z,97.13
2022-12-17T02:45:48.346Z,97.13
2022-12-17T02:55:48.424Z,97.13
2022-12-17T03:05:48.715Z,97.02
2022-12-17T03:15:48.579Z,96.81
2022-12-17T03:25:48.903Z,96.71
2022-12-17T03:35:49.878Z,96.55
2022-12-17T03:45:49.192Z,96.33
2022-12-17T03:55:49.234Z,96.39
2022-12-17T04:05:49.378Z,96.55
2022-12-17T04:15:49.671Z,96.44
2022-12-17T04:25:49.987Z,96.12
2022-12-17T04:35:50.007Z,96.12
2022-12-17T04:45:50.417Z,96.12
2022-12-17T04:55:50.479Z,96.23
2022-12-17T05:05:50.830Z,96.23
2022-12-17T05:15:53.311Z,95.81
2022-12-17T05:25:51.097Z,95.29
2022-12-17T05:35:51.113Z,95.07
2022-12-17T05:45:51.465Z,94.97
2022-12-17T05:55:51.494Z,95.18
2022-12-17T06:05:51.829Z,95.50
2022-12-17T06:15:51.882Z,95.70
2022-12-17T06:25:52.225Z,95.50
2022-12-17T06:35:52.252Z,95.29
2022-12-17T06:45:52.576Z,94.97
2022-12-17T06:55:52.627Z,94.97
2022-12-17T07:05:52.944Z,94.24
2022-12-17T07:15:53.083Z,94.03
2022-12-17T07:25:53.221Z,93.71
2022-12-17T07:35:53.226Z,93.36
2022-12-17T07:45:53.565Z,93.26
2022-12-17T07:55:53.638Z,93.36
2022-12-17T08:05:53.947Z,93.88
2022-12-17T08:15:54.064Z,93.67
2022-12-17T08:25:57.384Z,93.78
2022-12-17T08:35:54.241Z,93.21
2022-12-17T08:45:54.749Z,93.21
2022-12-17T08:55:54.668Z,92.79
2022-12-17T09:05:54.968Z,92.33
2022-12-17T09:15:55.011Z,90.62
2022-12-17T09:25:58.218Z,89.36
2022-12-17T09:35:55.486Z,88.21
2022-12-17T09:45:56.026Z,88.11
2022-12-17T09:55:55.890Z,87.55
2022-12-17T10:05:56.165Z,87.30
2022-12-17T10:15:56.237Z,87.09
2022-12-17T10:25:56.541Z,86.77
2022-12-17T10:35:56.564Z,86.46
2022-12-17T10:45:56.844Z,87.40
2022-12-17T10:55:56.895Z,87.26
2022-12-17T11:05:59.823Z,87.40
2022-12-17T11:15:57.317Z,87.93
2022-12-17T11:25:57.476Z,87.99
2022-12-17T11:35:57.502Z,86.53
2022-12-17T11:45:57.884Z,86.74
2022-12-17T11:55:57.988Z,87.32
2022-12-17T12:05:58.299Z,86.38
2022-12-17T12:15:58.379Z,86.69
2022-12-17T12:25:58.459Z,85.76
2022-12-17T12:35:58.696Z,86.38
2022-12-17T12:45:59.164Z,86.53
2022-12-17T12:55:59.085Z,84.99
2022-12-17T13:05:59.329Z,82.41
2022-12-17T13:15:59.571Z,82.97
2022-12-17T13:25:59.664Z,82.63
2022-12-17T13:35:59.918Z,79.60
2022-12-17T13:46:00.295Z,82.53
2022-12-17T13:56:00.364Z,83.67
2022-12-17T14:06:00.509Z,84.55
2022-12-17T14:16:00.576Z,85.52
2022-12-17T14:26:00.882Z,85.31
2022-12-17T14:36:00.913Z,86.75
2022-12-17T14:46:01.294Z,86.65
2022-12-17T14:56:01.376Z,87.73
2022-12-17T15:06:01.621Z,88.71
2022-12-17T15:16:01.856Z,88.86
2022-12-17T15:26:02.188Z,89.76
2022-12-17T15:36:02.221Z,89.76
2022-12-17T15:46:02.508Z,90.01
2022-12-17T15:56:02.556Z,90.53
2022-12-17T16:06:02.855Z,91.12
2022-12-17T16:16:04.312Z,90.26
2022-12-17T16:26:03.007Z,91.79
2022-12-17T16:36:03.239Z,91.69
2022-12-17T16:46:06.529Z,91.64
2022-12-17T16:56:04.722Z,91.54
2022-12-17T17:06:03.840Z,91.27
2022-12-17T17:16:04.016Z,91.16
2022-12-17T17:26:04.112Z,90.84
2022-12-17T17:36:04.388Z,90.95
2022-12-17T17:46:04.544Z,91.09
2022-12-17T17:56:04.606Z,91.09
2022-12-17T18:06:05.019Z,91.24
2022-12-17T18:16:05.171Z,92.23
2022-12-17T18:26:08.510Z,92.90
2022-12-17T18:36:05.179Z,93.26
2022-12-17T18:46:05.674Z,93.47
2022-12-17T18:56:05.724Z,94.24
2022-12-17T19:06:06.665Z,94.56
2022-12-17T19:16:06.079Z,94.87
2022-12-17T19:26:06.132Z,94.75
2022-12-17T19:36:06.167Z,95.28
2022-12-17T19:46:06.632Z,94.84
2022-12-17T19:56:06.492Z,95.04
2022-12-17T20:06:06.776Z,94.52
2022-12-17T20:16:06.878Z,95.09
2022-12-17T20:26:07.967Z,95.09
2022-12-17T20:36:07.190Z,95.34
2022-12-17T20:46:07.782Z,95.55
2022-12-17T20:56:07.662Z,95.03
2022-12-17T21:06:08.002Z,95.34
2022-12-17T21:16:08.161Z,95.49
2022-12-17T21:26:08.788Z,95.18
2022-12-17T21:36:08.351Z,95.32
2022-12-17T21:46:08.694Z,96.17
2022-12-17T21:56:08.759Z,95.89
2022-12-17T22:06:08.903Z,95.68
2022-12-17T22:16:09.145Z,95.24
2022-12-17T22:26:09.373Z,95.35
2022-12-17T22:39:47.311Z,95.73
2022-12-17T22:46:11.614Z,96.00
2022-12-17T22:56:18.584Z,96.00
2022-12-17T23:06:10.992Z,96.69
2022-12-17T23:16:10.113Z,96.37
2022-12-17T23:26:10.187Z,96.00
2022-12-17T23:36:10.455Z,95.73
2022-12-17T23:46:10.730Z,95.94
2022-12-17T23:56:11.856Z,95.77
